Search for airport 
image banner adimage banner adimage banner ad
image banner ad

60PA - Pmmc

Located in Pottstown, United States

ICAO - 60PA, IATA -

Data provided by Airmate  

General information

Coordinates: N40°14'37" W75°36'40"
Elevation is 168 feet MSL.
Magnetic variation is -12° East
View others Airports in Pennsylvania

Operational data

Special qualification required
Current time UTC:
Current local time:
Weather at : KPTW - Heritage Field ( 5 km )
METAR: KPTW 182154Z AUTO VRB06KT 10SM CLR 26/05 A3027 RMK AO2 SLP247 T02560050
View NOTAMs / SUP AIP / TFR affecting this airport [VIEW]
Communications frequencies: [VIEW]

Runways:

Airport contact information

Address: Pottstown United States

Satellite view of 60PA